createdAt,value
2017-06-14T00:00:45.526Z,24.0
2017-06-14T00:01:46.223Z,24.0
2017-06-14T00:02:46.974Z,23.9
2017-06-14T00:03:48.022Z,23.9
2017-06-14T00:04:48.694Z,23.9
2017-06-14T00:05:49.374Z,23.8
2017-06-14T00:06:50.082Z,23.9
2017-06-14T00:07:50.768Z,23.9
2017-06-14T00:08:51.653Z,23.9
2017-06-14T00:09:52.650Z,23.9
2017-06-14T00:10:53.377Z,23.9
2017-06-14T00:11:54.130Z,24.0
2017-06-14T00:12:54.814Z,24.0
2017-06-14T00:13:55.676Z,24.0
2017-06-14T00:14:56.349Z,23.9
2017-06-14T00:15:57.076Z,24.0
2017-06-14T00:16:58.044Z,24.0
2017-06-14T00:17:58.741Z,24.0
2017-06-14T00:18:59.501Z,24.0
2017-06-14T00:20:00.190Z,24.0
2017-06-14T00:21:00.869Z,24.0
2017-06-14T00:22:01.553Z,24.0
2017-06-14T00:23:02.691Z,24.0
2017-06-14T00:24:03.443Z,24.0
2017-06-14T00:25:04.147Z,24.0
2017-06-14T00:26:04.872Z,24.0
2017-06-14T00:27:05.564Z,24.0
2017-06-14T00:28:06.409Z,23.9
2017-06-14T00:29:07.453Z,24.0
2017-06-14T00:30:08.145Z,23.9
2017-06-14T00:31:08.824Z,23.9
2017-06-14T00:32:09.531Z,23.9
2017-06-14T00:33:10.272Z,23.9
2017-06-14T00:34:10.962Z,24.0
2017-06-14T00:35:11.998Z,23.9
2017-06-14T00:36:12.692Z,23.9
2017-06-14T00:37:13.390Z,24.0
2017-06-14T00:38:14.189Z,24.0
2017-06-14T00:39:14.877Z,24.0
2017-06-14T00:40:15.577Z,24.0
2017-06-14T00:41:16.558Z,24.0
2017-06-14T00:42:17.250Z,24.0
2017-06-14T00:43:18.093Z,24.0
2017-06-14T00:44:18.784Z,24.0
2017-06-14T00:45:19.532Z,23.9
2017-06-14T00:46:20.216Z,24.0
2017-06-14T00:47:20.899Z,23.9
2017-06-14T00:48:21.962Z,23.9
2017-06-14T00:49:22.653Z,23.9
2017-06-14T00:50:23.340Z,23.9
2017-06-14T00:51:24.038Z,23.9
2017-06-14T00:52:24.718Z,23.9
2017-06-14T00:53:25.472Z,23.9
2017-06-14T00:54:26.450Z,23.8
2017-06-14T00:55:27.144Z,23.9
2017-06-14T00:56:27.841Z,24.0
2017-06-14T00:57:28.536Z,23.9
2017-06-14T00:58:29.359Z,23.9
2017-06-14T00:59:30.046Z,23.9
2017-06-14T01:00:31.046Z,23.8
2017-06-14T01:01:31.745Z,23.9
2017-06-14T01:02:32.437Z,24.0
2017-06-14T01:03:33.221Z,23.9
2017-06-14T01:04:33.917Z,23.8
2017-06-14T01:05:34.928Z,24.0
2017-06-14T01:06:35.899Z,24.0
2017-06-14T01:07:36.647Z,23.9
2017-06-14T01:08:37.528Z,24.0
2017-06-14T01:09:38.236Z,23.9
2017-06-14T01:10:38.910Z,24.0
2017-06-14T01:11:39.608Z,23.9
2017-06-14T01:12:40.601Z,23.9
2017-06-14T01:13:41.382Z,23.9
2017-06-14T01:14:42.085Z,23.9
2017-06-14T01:15:42.820Z,23.8
2017-06-14T01:16:43.517Z,23.8
2017-06-14T01:17:44.189Z,24.0
2017-06-14T01:18:45.401Z,23.8
2017-06-14T01:19:46.094Z,23.9
2017-06-14T01:20:46.758Z,23.8
2017-06-14T01:21:47.479Z,23.9
2017-06-14T01:22:48.152Z,23.9
2017-06-14T01:23:48.963Z,23.9
2017-06-14T01:24:49.935Z,23.8
2017-06-14T01:25:50.637Z,23.8
2017-06-14T01:26:51.333Z,23.7
2017-06-14T01:27:52.046Z,23.6
2017-06-14T01:28:53.023Z,23.6
2017-06-14T01:29:53.750Z,23.4
2017-06-14T01:30:54.416Z,23.5
2017-06-14T01:31:55.417Z,23.6
2017-06-14T01:32:56.094Z,23.6
2017-06-14T01:33:56.953Z,23.6
2017-06-14T01:34:57.851Z,23.6
2017-06-14T01:35:58.528Z,23.6
2017-06-14T01:36:59.274Z,23.6
2017-06-14T01:38:00.251Z,23.6
2017-06-14T01:39:01.064Z,23.5
2017-06-14T01:40:01.811Z,23.6
2017-06-14T01:41:02.563Z,23.5
2017-06-14T01:42:03.458Z,23.6
2017-06-14T01:43:04.147Z,23.5
2017-06-14T01:44:05.123Z,23.6
2017-06-14T01:45:05.877Z,23.6
2017-06-14T01:46:06.591Z,23.5
2017-06-14T01:47:07.407Z,23.4
2017-06-14T01:48:08.118Z,23.5
2017-06-14T01:49:08.788Z,23.5
2017-06-14T01:50:09.803Z,23.6
2017-06-14T01:51:10.466Z,23.5
2017-06-14T01:52:11.365Z,23.4
2017-06-14T01:53:12.055Z,23.5
2017-06-14T01:54:12.746Z,23.4
2017-06-14T01:55:13.451Z,23.4
2017-06-14T01:56:14.449Z,23.3
2017-06-14T01:57:15.183Z,23.3
2017-06-14T01:58:15.858Z,23.3
2017-06-14T01:59:16.704Z,23.3
2017-06-14T02:00:17.408Z,23.4
2017-06-14T02:01:18.084Z,23.3
2017-06-14T02:02:19.062Z,23.4
2017-06-14T02:03:19.769Z,23.4
2017-06-14T02:04:20.667Z,23.4
2017-06-14T02:05:21.344Z,23.4
2017-06-14T02:06:22.037Z,23.4
2017-06-14T02:07:22.732Z,23.3
2017-06-14T02:08:23.720Z,23.3
2017-06-14T02:09:24.561Z,23.3
2017-06-14T02:10:25.258Z,23.3
2017-06-14T02:11:25.946Z,23.3
2017-06-14T02:12:26.655Z,23.4
2017-06-14T02:13:27.354Z,23.3
2017-06-14T02:14:28.372Z,23.3
2017-06-14T02:15:29.090Z,23.4
2017-06-14T02:16:30.173Z,23.3
2017-06-14T02:17:30.921Z,23.2
2017-06-14T02:18:31.616Z,23.2
2017-06-14T02:19:32.309Z,23.3
2017-06-14T02:20:33.292Z,23.3
2017-06-14T02:21:34.293Z,23.3
2017-06-14T02:22:34.975Z,23.3
2017-06-14T02:23:35.665Z,23.3
2017-06-14T02:24:37.232Z,23.2
2017-06-14T02:25:38.772Z,23.2
2017-06-14T02:26:39.831Z,23.2
2017-06-14T02:27:40.516Z,23.2
2017-06-14T02:28:41.188Z,23.3
2017-06-14T02:29:41.879Z,23.2
2017-06-14T02:30:42.575Z,23.1
2017-06-14T02:31:43.325Z,23.1
2017-06-14T02:32:44.302Z,23.0
2017-06-14T02:33:45.042Z,23.0
2017-06-14T02:34:45.780Z,22.9
2017-06-14T02:35:46.469Z,22.9
2017-06-14T02:36:47.215Z,22.8
2017-06-14T02:37:47.898Z,22.9
2017-06-14T02:38:48.928Z,23.0
2017-06-14T02:39:49.655Z,22.9
2017-06-14T02:40:50.321Z,23.0
2017-06-14T02:41:51.005Z,23.0
2017-06-14T02:42:51.709Z,23.0
2017-06-14T02:43:52.444Z,23.0
2017-06-14T02:44:53.441Z,23.0
2017-06-14T02:45:54.130Z,23.1
2017-06-14T02:46:54.805Z,23.0
2017-06-14T02:47:55.506Z,23.1
2017-06-14T02:48:56.236Z,23.0
2017-06-14T02:49:56.941Z,23.0
2017-06-14T02:50:57.948Z,23.0
2017-06-14T02:51:58.609Z,23.1
2017-06-14T02:52:59.336Z,23.1
2017-06-14T02:54:00.161Z,22.8
2017-06-14T02:55:00.828Z,22.9
2017-06-14T02:56:01.518Z,22.9
2017-06-14T02:57:02.538Z,22.9
2017-06-14T02:58:03.204Z,23.0
2017-06-14T02:59:03.987Z,22.9
2017-06-14T03:00:04.669Z,22.9
2017-06-14T03:01:05.662Z,22.9
2017-06-14T03:02:06.355Z,22.8
2017-06-14T03:03:07.388Z,22.8
2017-06-14T03:05:23.676Z,22.9
2017-06-14T03:06:24.373Z,22.8
2017-06-14T03:07:25.059Z,22.9
2017-06-14T03:08:25.749Z,22.8
2017-06-14T03:09:26.784Z,22.7
2017-06-14T03:10:27.537Z,22.7
2017-06-14T03:11:28.239Z,22.8
2017-06-14T03:12:28.949Z,22.7
2017-06-14T03:13:29.662Z,22.7
2017-06-14T03:14:30.337Z,22.7
2017-06-14T03:15:31.372Z,22.7
2017-06-14T03:16:32.121Z,22.8
2017-06-14T03:17:32.793Z,22.9
2017-06-14T03:18:33.503Z,22.8
2017-06-14T03:19:34.182Z,22.8
2017-06-14T03:20:34.971Z,22.9
2017-06-14T03:21:35.658Z,22.9
2017-06-14T03:22:36.655Z,22.8
2017-06-14T03:23:37.346Z,22.8
2017-06-14T03:24:38.035Z,22.9
2017-06-14T03:25:38.881Z,22.8
2017-06-14T03:26:39.601Z,22.8
2017-06-14T03:27:40.347Z,22.9
2017-06-14T03:28:41.301Z,22.8
2017-06-14T03:29:41.986Z,22.8
2017-06-14T03:30:42.728Z,22.7
2017-06-14T03:31:43.468Z,22.8
2017-06-14T03:32:44.158Z,22.8
2017-06-14T03:33:44.866Z,22.8
2017-06-14T03:34:45.847Z,22.7
2017-06-14T03:35:46.634Z,22.7
2017-06-14T03:36:47.329Z,22.8
2017-06-14T03:37:48.009Z,22.8
2017-06-14T03:38:48.704Z,22.7
2017-06-14T03:39:49.408Z,22.7
2017-06-14T03:40:50.555Z,22.8
2017-06-14T03:41:51.230Z,22.6
2017-06-14T03:42:51.914Z,22.7
2017-06-14T03:43:52.677Z,22.8
2017-06-14T03:44:53.357Z,22.7
2017-06-14T03:45:54.159Z,22.8
2017-06-14T03:46:55.208Z,22.7
2017-06-14T03:47:55.887Z,22.7
2017-06-14T03:48:56.566Z,22.6
2017-06-14T03:49:57.262Z,22.7
2017-06-14T03:50:57.974Z,22.6
2017-06-14T03:51:58.696Z,22.7
2017-06-14T03:52:59.696Z,22.7
2017-06-14T03:54:00.390Z,22.8
2017-06-14T03:55:01.082Z,22.8
2017-06-14T03:56:01.769Z,22.7
2017-06-14T03:57:02.725Z,22.7
2017-06-14T03:58:03.408Z,22.8
2017-06-14T03:59:04.467Z,22.8
2017-06-14T04:00:05.161Z,22.7
2017-06-14T04:01:05.846Z,22.7
2017-06-14T04:02:06.590Z,22.6
2017-06-14T04:03:07.361Z,22.8
2017-06-14T04:04:08.018Z,22.7
2017-06-14T04:05:09.010Z,22.6
2017-06-14T04:06:09.699Z,22.7
2017-06-14T04:07:10.586Z,22.7
2017-06-14T04:08:11.329Z,22.8
2017-06-14T04:09:12.079Z,22.7
2017-06-14T04:10:12.770Z,22.7
2017-06-14T04:11:13.755Z,22.7
2017-06-14T04:12:14.548Z,22.8
2017-06-14T04:13:15.384Z,22.7
2017-06-14T04:14:16.081Z,22.7
2017-06-14T04:15:16.769Z,22.6
2017-06-14T04:16:17.469Z,22.6
2017-06-14T04:17:18.463Z,22.7
2017-06-14T04:18:19.208Z,22.7
2017-06-14T04:19:19.897Z,22.7
2017-06-14T04:20:20.593Z,22.7
2017-06-14T04:21:21.289Z,22.7
2017-06-14T04:22:21.969Z,22.7
2017-06-14T04:23:23.038Z,22.6
2017-06-14T04:24:23.693Z,22.7
2017-06-14T04:25:24.383Z,22.7
2017-06-14T04:26:25.133Z,22.8
2017-06-14T04:27:25.837Z,22.7
2017-06-14T04:28:26.566Z,22.6
2017-06-14T04:29:27.612Z,22.7
2017-06-14T04:30:28.303Z,22.7
2017-06-14T04:31:28.999Z,22.8
2017-06-14T04:32:29.739Z,22.6
2017-06-14T04:33:30.500Z,22.7
2017-06-14T04:34:31.184Z,22.8
2017-06-14T04:35:31.863Z,22.6
2017-06-14T04:36:32.875Z,22.8
2017-06-14T04:37:33.544Z,22.8
2017-06-14T04:38:34.341Z,22.7
2017-06-14T04:39:35.022Z,22.8
2017-06-14T04:40:35.714Z,22.7
2017-06-14T04:41:36.432Z,22.7
2017-06-14T04:42:37.411Z,22.7
2017-06-14T04:43:38.321Z,22.7
2017-06-14T04:44:39.002Z,22.7
2017-06-14T04:45:39.742Z,22.7
2017-06-14T04:46:40.454Z,22.8
2017-06-14T04:47:41.137Z,22.8
2017-06-14T04:48:42.114Z,22.8
2017-06-14T04:49:42.824Z,22.7
2017-06-14T04:50:43.720Z,22.8
2017-06-14T04:51:44.411Z,22.8
2017-06-14T04:52:45.094Z,22.8
2017-06-14T04:53:45.795Z,22.8
2017-06-14T04:54:46.785Z,22.8
2017-06-14T04:55:47.732Z,22.9
2017-06-14T04:56:48.499Z,22.8
2017-06-14T04:57:49.182Z,22.8
2017-06-14T04:58:49.866Z,22.9
2017-06-14T04:59:50.627Z,22.9
2017-06-14T05:00:51.716Z,22.9
2017-06-14T05:01:52.423Z,22.8
2017-06-14T05:02:53.094Z,22.9
2017-06-14T05:03:53.789Z,22.9
2017-06-14T05:04:54.493Z,23.0
2017-06-14T05:05:55.371Z,22.9
2017-06-14T05:06:56.069Z,23.0
2017-06-14T05:07:57.111Z,23.0
2017-06-14T05:08:57.793Z,23.0
2017-06-14T05:09:58.486Z,23.0
2017-06-14T05:10:59.347Z,23.0
2017-06-14T05:12:00.075Z,23.0
2017-06-14T05:13:00.798Z,23.0
2017-06-14T05:14:01.781Z,23.0
2017-06-14T05:15:02.496Z,23.0
2017-06-14T05:16:03.318Z,23.0
2017-06-14T05:17:04.012Z,23.0
2017-06-14T05:18:04.699Z,23.0
2017-06-14T05:19:05.388Z,23.0
2017-06-14T05:20:06.377Z,23.0
2017-06-14T05:21:07.189Z,23.0
2017-06-14T05:22:07.866Z,23.0
2017-06-14T05:23:08.552Z,23.0
2017-06-14T05:24:09.254Z,23.1
2017-06-14T05:25:09.971Z,23.1
2017-06-14T05:26:11.189Z,23.0
2017-06-14T05:27:11.889Z,23.1
2017-06-14T05:28:12.654Z,23.1
2017-06-14T05:29:13.352Z,23.0
2017-06-14T05:30:14.044Z,23.0
2017-06-14T05:31:14.941Z,23.0
2017-06-14T05:32:15.975Z,23.1
2017-06-14T05:33:16.748Z,23.1
2017-06-14T05:34:17.439Z,23.2
2017-06-14T05:35:18.130Z,23.2
2017-06-14T05:36:18.872Z,23.1
2017-06-14T05:37:19.952Z,23.2
2017-06-14T05:38:20.909Z,23.2
2017-06-14T05:39:21.604Z,23.2
2017-06-14T05:40:22.351Z,23.2
2017-06-14T05:41:23.039Z,23.2
2017-06-14T05:42:23.782Z,23.3
2017-06-14T05:43:24.922Z,23.2
2017-06-14T05:44:25.695Z,23.3
2017-06-14T05:45:26.382Z,23.2
2017-06-14T05:46:27.072Z,23.3
2017-06-14T05:47:27.781Z,23.2
2017-06-14T05:48:28.454Z,23.4
2017-06-14T05:49:29.299Z,23.3
2017-06-14T05:50:30.351Z,23.3
2017-06-14T05:51:31.055Z,23.4
2017-06-14T05:52:31.754Z,23.3
2017-06-14T05:53:32.455Z,23.4
2017-06-14T05:54:33.198Z,23.3
2017-06-14T05:55:33.883Z,23.4
2017-06-14T05:56:34.876Z,23.4
2017-06-14T05:57:35.566Z,23.4
2017-06-14T05:58:36.262Z,23.4
2017-06-14T05:59:37.111Z,23.4
2017-06-14T06:00:37.948Z,23.5
2017-06-14T06:01:38.692Z,23.6
2017-06-14T06:02:39.399Z,23.4
2017-06-14T06:03:40.095Z,23.4
2017-06-14T06:04:40.793Z,23.6
2017-06-14T06:05:41.492Z,23.6
2017-06-14T06:06:42.292Z,23.5
2017-06-14T06:07:43.275Z,23.6
2017-06-14T06:08:44.361Z,23.6
2017-06-14T06:09:45.033Z,23.5
2017-06-14T06:10:45.724Z,23.6
2017-06-14T06:11:46.464Z,23.5
2017-06-14T06:12:47.161Z,23.6
2017-06-14T06:13:48.147Z,23.6
2017-06-14T06:14:49.191Z,23.6
2017-06-14T06:15:49.884Z,23.6
2017-06-14T06:16:50.573Z,23.7
2017-06-14T06:17:51.325Z,23.6
2017-06-14T06:18:52.068Z,23.6
2017-06-14T06:19:52.782Z,23.6
2017-06-14T06:20:53.780Z,23.7
2017-06-14T06:21:54.474Z,23.7
2017-06-14T06:22:55.170Z,23.7
2017-06-14T06:23:55.864Z,23.6
2017-06-14T06:24:56.706Z,23.7
2017-06-14T06:25:57.393Z,23.7
2017-06-14T06:26:58.393Z,23.8
2017-06-14T06:27:59.090Z,23.7
2017-06-14T06:28:59.784Z,23.7
2017-06-14T06:30:00.563Z,23.8
2017-06-14T06:31:01.308Z,23.8
2017-06-14T06:32:01.999Z,23.8
2017-06-14T06:33:02.989Z,23.8
2017-06-14T06:34:03.677Z,23.8
2017-06-14T06:35:04.415Z,23.9
2017-06-14T06:36:05.108Z,23.8
2017-06-14T06:37:05.835Z,23.8
2017-06-14T06:38:06.506Z,23.9
2017-06-14T06:39:07.506Z,23.8
2017-06-14T06:40:08.339Z,23.9
2017-06-14T06:41:09.034Z,23.9
2017-06-14T06:42:09.742Z,23.8
2017-06-14T06:43:10.412Z,23.8
2017-06-14T06:44:11.432Z,23.8
2017-06-14T06:45:12.363Z,23.9
2017-06-14T06:46:13.056Z,23.9
2017-06-14T06:47:13.751Z,23.9
2017-06-14T06:48:14.559Z,23.9
2017-06-14T06:49:15.252Z,23.9
2017-06-14T06:51:31.950Z,23.9
2017-06-14T06:52:32.607Z,23.9
2017-06-14T06:53:33.360Z,23.9
2017-06-14T06:54:34.109Z,24.0
2017-06-14T06:55:34.857Z,24.0
2017-06-14T06:56:35.543Z,24.0
2017-06-14T06:57:36.233Z,24.0
2017-06-14T06:58:37.230Z,24.0
2017-06-14T06:59:38.015Z,24.0
2017-06-14T07:00:38.708Z,24.0
2017-06-14T07:01:39.458Z,24.0
2017-06-14T07:02:40.166Z,24.1
2017-06-14T07:03:40.847Z,24.1
2017-06-14T07:04:41.991Z,24.1
2017-06-14T07:05:42.761Z,24.1
2017-06-14T07:06:43.430Z,24.1
2017-06-14T07:07:44.135Z,24.1
2017-06-14T07:08:44.819Z,24.1
2017-06-14T07:09:45.638Z,24.2
2017-06-14T07:10:46.630Z,24.2
2017-06-14T07:11:47.461Z,24.1
2017-06-14T07:12:48.172Z,24.1
2017-06-14T07:13:48.858Z,24.1
2017-06-14T07:14:49.606Z,24.1
2017-06-14T07:15:50.290Z,24.2
2017-06-14T07:16:51.439Z,24.1
2017-06-14T07:17:52.151Z,24.2
2017-06-14T07:18:52.898Z,24.1
2017-06-14T07:19:53.584Z,24.2
2017-06-14T07:20:54.274Z,24.2
2017-06-14T07:21:55.292Z,24.2
2017-06-14T07:22:56.016Z,24.2
2017-06-14T07:23:56.710Z,24.2
2017-06-14T07:24:57.419Z,24.2
2017-06-14T07:25:58.170Z,24.2
2017-06-14T07:26:58.905Z,24.2
2017-06-14T07:27:59.756Z,24.2
2017-06-14T07:29:00.744Z,24.2
2017-06-14T07:30:01.436Z,24.2
2017-06-14T07:31:02.180Z,24.3
2017-06-14T07:32:02.871Z,24.3
2017-06-14T07:33:03.710Z,24.3
2017-06-14T07:34:04.371Z,24.3
2017-06-14T07:35:05.372Z,24.3
2017-06-14T07:36:06.057Z,24.3
2017-06-14T07:37:06.791Z,24.3
2017-06-14T07:38:07.535Z,24.3
2017-06-14T07:39:08.259Z,24.3
2017-06-14T07:40:08.949Z,24.3
2017-06-14T07:41:09.679Z,24.3
2017-06-14T07:42:10.692Z,24.3
2017-06-14T07:43:11.401Z,24.4
2017-06-14T07:44:12.116Z,24.3
2017-06-14T07:45:12.879Z,24.4
2017-06-14T07:46:13.590Z,24.4
2017-06-14T07:47:14.429Z,24.4
2017-06-14T07:48:15.438Z,24.4
2017-06-14T07:49:16.111Z,24.5
2017-06-14T07:50:16.822Z,24.5
2017-06-14T07:51:17.522Z,24.5
2017-06-14T07:52:18.281Z,24.5
2017-06-14T07:53:20.053Z,24.5
2017-06-14T07:54:21.046Z,24.5
2017-06-14T07:55:21.778Z,24.5
2017-06-14T07:56:22.478Z,24.5
2017-06-14T07:57:23.218Z,24.5
2017-06-14T07:58:23.968Z,24.5
2017-06-14T07:59:24.656Z,24.5
2017-06-14T08:00:25.366Z,24.6
2017-06-14T08:01:26.422Z,24.6
2017-06-14T08:02:27.172Z,24.5
2017-06-14T08:03:27.893Z,24.6
2017-06-14T08:04:28.603Z,24.5
2017-06-14T08:05:29.285Z,24.6
2017-06-14T08:06:30.279Z,24.5
2017-06-14T08:07:31.031Z,24.6
2017-06-14T08:08:31.830Z,24.6
2017-06-14T08:09:32.565Z,24.6
2017-06-14T08:10:33.320Z,24.6
2017-06-14T08:11:34.006Z,24.6
2017-06-14T08:12:34.991Z,24.6
2017-06-14T08:13:35.891Z,24.6
2017-06-14T08:14:36.582Z,24.6
2017-06-14T08:15:37.293Z,24.6
2017-06-14T08:16:37.994Z,24.6
2017-06-14T08:17:38.682Z,24.6
2017-06-14T08:18:39.596Z,24.6
2017-06-14T08:19:40.288Z,24.6
2017-06-14T08:20:40.971Z,24.6
2017-06-14T08:21:41.712Z,24.7
2017-06-14T08:22:42.725Z,24.8
2017-06-14T08:23:43.670Z,24.7
2017-06-14T08:24:44.372Z,24.7
2017-06-14T08:25:45.065Z,24.7
2017-06-14T08:26:45.804Z,24.7
2017-06-14T08:27:46.513Z,24.7
2017-06-14T08:28:47.551Z,24.7
2017-06-14T08:29:48.256Z,24.8
2017-06-14T08:30:48.938Z,24.8
2017-06-14T08:31:49.641Z,24.7
2017-06-14T08:32:50.363Z,24.7
2017-06-14T08:33:51.351Z,24.7
2017-06-14T08:34:52.393Z,24.7
2017-06-14T08:35:53.085Z,24.7
2017-06-14T08:36:53.776Z,24.7
2017-06-14T08:37:54.476Z,24.8
2017-06-14T08:38:55.444Z,24.8
2017-06-14T08:39:56.118Z,24.8
2017-06-14T08:40:57.170Z,24.8
2017-06-14T08:41:57.912Z,24.9
2017-06-14T08:42:58.692Z,24.9
2017-06-14T08:43:59.439Z,24.9
2017-06-14T08:45:00.214Z,25.0
2017-06-14T08:46:01.010Z,24.9
2017-06-14T08:47:01.966Z,25.0
2017-06-14T08:48:02.763Z,25.0
2017-06-14T08:49:03.513Z,25.0
2017-06-14T08:50:04.212Z,25.0
2017-06-14T08:51:04.960Z,25.0
2017-06-14T08:52:05.979Z,25.0
2017-06-14T08:53:06.660Z,25.0
2017-06-14T08:54:07.362Z,25.0
2017-06-14T08:55:08.081Z,25.0
2017-06-14T08:56:08.860Z,25.2
2017-06-14T08:57:09.554Z,25.1
2017-06-14T08:59:26.075Z,25.1
2017-06-14T09:00:26.784Z,25.1
2017-06-14T09:01:27.608Z,25.2
2017-06-14T09:02:28.348Z,25.1
2017-06-14T09:03:29.032Z,25.2
2017-06-14T09:04:29.746Z,25.2
2017-06-14T09:05:30.829Z,25.1
2017-06-14T09:06:31.635Z,25.1
2017-06-14T09:07:32.326Z,25.2
2017-06-14T09:08:33.089Z,25.2
2017-06-14T09:09:33.774Z,25.2
2017-06-14T09:10:34.463Z,25.2
2017-06-14T09:11:35.692Z,25.2
2017-06-14T09:12:36.403Z,25.2
2017-06-14T09:13:37.149Z,25.2
2017-06-14T09:14:37.843Z,25.2
2017-06-14T09:15:38.565Z,25.3
2017-06-14T09:16:39.262Z,25.3
2017-06-14T09:17:40.243Z,25.3
2017-06-14T09:18:41.052Z,25.3
2017-06-14T09:19:41.761Z,25.3
2017-06-14T09:20:42.450Z,25.3
2017-06-14T09:21:43.151Z,25.4
2017-06-14T09:22:43.849Z,25.3
2017-06-14T09:23:44.820Z,25.3
2017-06-14T09:24:45.821Z,25.3
2017-06-14T09:25:46.523Z,25.3
2017-06-14T09:26:47.258Z,25.3
2017-06-14T09:27:47.971Z,25.4
2017-06-14T09:28:48.818Z,25.3
2017-06-14T09:29:49.904Z,25.4
2017-06-14T09:30:50.620Z,25.5
2017-06-14T09:31:51.399Z,25.4
2017-06-14T09:32:52.057Z,25.4
2017-06-14T09:33:52.882Z,25.4
2017-06-14T09:34:53.568Z,25.3
2017-06-14T09:35:54.748Z,25.4
2017-06-14T09:36:55.427Z,25.4
2017-06-14T09:37:56.132Z,25.4
2017-06-14T09:38:56.930Z,25.4
2017-06-14T09:39:57.638Z,25.4
2017-06-14T09:40:58.637Z,25.4
2017-06-14T09:41:59.330Z,25.4
2017-06-14T09:43:00.069Z,25.5
2017-06-14T09:44:00.779Z,25.5
2017-06-14T09:45:01.497Z,25.5
2017-06-14T09:46:02.276Z,25.4
2017-06-14T09:47:03.243Z,25.5
2017-06-14T09:48:03.959Z,25.5
2017-06-14T09:49:04.703Z,25.5
2017-06-14T09:50:05.407Z,25.5
2017-06-14T09:51:06.349Z,25.4
2017-06-14T09:52:07.049Z,25.5
2017-06-14T09:53:08.285Z,25.5
2017-06-14T09:54:08.982Z,25.4
2017-06-14T09:55:09.739Z,25.5
2017-06-14T09:56:10.553Z,25.5
2017-06-14T09:57:11.314Z,25.5
2017-06-14T09:58:12.078Z,25.5
2017-06-14T09:59:13.051Z,25.5
2017-06-14T10:00:13.755Z,25.6
2017-06-14T10:01:14.614Z,25.6
2017-06-14T10:02:15.305Z,25.5
2017-06-14T10:03:15.999Z,25.6
2017-06-14T10:04:16.690Z,25.6
2017-06-14T10:05:17.696Z,25.6
2017-06-14T10:06:18.552Z,25.6
2017-06-14T10:07:19.270Z,25.6
2017-06-14T10:08:19.979Z,25.6
2017-06-14T10:09:20.958Z,25.5
2017-06-14T10:10:23.963Z,25.6
2017-06-14T10:11:24.995Z,25.6
2017-06-14T10:12:25.826Z,25.6
2017-06-14T10:13:26.522Z,25.6
2017-06-14T10:14:27.251Z,25.7
2017-06-14T10:15:28.045Z,25.7
2017-06-14T10:16:28.734Z,25.6
2017-06-14T10:17:29.872Z,25.6
2017-06-14T10:18:30.632Z,25.6
2017-06-14T10:19:31.329Z,25.7
2017-06-14T10:20:32.115Z,25.6
2017-06-14T10:21:32.982Z,25.7
2017-06-14T10:22:33.732Z,25.7
2017-06-14T10:23:34.721Z,25.7
2017-06-14T10:24:35.415Z,25.7
2017-06-14T10:25:36.138Z,25.6
2017-06-14T10:26:36.882Z,25.7
2017-06-14T10:27:37.578Z,25.7
2017-06-14T10:28:38.327Z,25.8
2017-06-14T10:29:39.351Z,25.7
2017-06-14T10:30:40.009Z,25.6
2017-06-14T10:31:40.897Z,25.7
2017-06-14T10:32:41.658Z,25.7
2017-06-14T10:33:42.347Z,25.7
2017-06-14T10:34:43.099Z,25.8
2017-06-14T10:35:43.787Z,25.7
2017-06-14T10:36:44.690Z,25.8
2017-06-14T10:37:45.409Z,25.7
2017-06-14T10:38:46.111Z,25.8
2017-06-14T10:39:46.872Z,25.8
2017-06-14T10:40:47.951Z,25.7
2017-06-14T10:41:48.722Z,25.7
2017-06-14T10:42:49.417Z,25.7
2017-06-14T10:43:50.183Z,25.7
2017-06-14T10:44:50.882Z,25.7
2017-06-14T10:45:51.579Z,25.7
2017-06-14T10:46:52.863Z,25.7
2017-06-14T10:47:53.696Z,25.8
2017-06-14T10:48:54.416Z,25.8
2017-06-14T10:49:55.157Z,25.9
2017-06-14T10:50:55.853Z,25.9
2017-06-14T10:51:56.737Z,25.8
2017-06-14T10:52:57.743Z,25.9
2017-06-14T10:53:58.517Z,25.9
2017-06-14T10:54:59.258Z,25.8
2017-06-14T10:55:59.985Z,25.9
2017-06-14T10:57:00.915Z,25.8
2017-06-14T10:58:01.607Z,26.0
2017-06-14T10:59:02.605Z,25.9
2017-06-14T11:00:03.416Z,26.0
2017-06-14T11:01:04.106Z,25.9
2017-06-14T11:02:04.890Z,25.9
2017-06-14T11:03:05.608Z,26.0
2017-06-14T11:04:06.664Z,25.9
2017-06-14T11:05:07.359Z,25.9
2017-06-14T11:06:08.371Z,26.0
2017-06-14T11:07:10.001Z,26.0
2017-06-14T11:08:11.281Z,26.0
2017-06-14T11:09:11.999Z,26.0
2017-06-14T11:10:13.053Z,26.0
2017-06-14T11:11:14.285Z,26.0
2017-06-14T11:12:15.325Z,26.0
2017-06-14T11:13:16.110Z,26.0
2017-06-14T11:14:16.927Z,26.0
2017-06-14T11:15:17.785Z,26.1
2017-06-14T11:16:18.977Z,26.0
2017-06-14T11:17:20.734Z,26.0
2017-06-14T11:18:21.519Z,26.1
2017-06-14T11:19:22.331Z,26.1
2017-06-14T11:20:23.093Z,26.1
2017-06-14T11:21:23.894Z,26.2
2017-06-14T11:22:25.153Z,26.2
2017-06-14T11:23:25.845Z,26.1
2017-06-14T11:24:26.721Z,26.2
2017-06-14T11:25:27.627Z,26.2
2017-06-14T11:26:28.591Z,26.2
2017-06-14T11:27:29.306Z,26.3
2017-06-14T11:28:30.340Z,26.2
2017-06-14T11:29:31.121Z,26.1
2017-06-14T11:30:31.920Z,26.1
2017-06-14T11:31:32.647Z,26.1
2017-06-14T11:32:33.379Z,26.1
2017-06-14T11:33:34.072Z,26.2
2017-06-14T11:34:35.175Z,26.1
2017-06-14T11:35:35.948Z,26.2
2017-06-14T11:36:36.643Z,26.1
2017-06-14T11:37:37.370Z,26.1
2017-06-14T11:38:38.105Z,26.2
2017-06-14T11:39:39.228Z,26.1
2017-06-14T11:40:40.046Z,26.2
2017-06-14T11:41:40.803Z,26.3
2017-06-14T11:42:41.510Z,26.3
2017-06-14T11:43:42.235Z,26.3
2017-06-14T11:44:42.913Z,26.3
2017-06-14T11:45:44.071Z,26.2
2017-06-14T11:46:45.041Z,26.2
2017-06-14T11:47:45.772Z,26.2
2017-06-14T11:48:46.507Z,26.2
2017-06-14T11:49:47.215Z,26.2
2017-06-14T11:50:47.923Z,26.2
2017-06-14T11:51:49.062Z,26.3
2017-06-14T11:52:49.740Z,26.3
2017-06-14T11:53:50.540Z,26.2
2017-06-14T11:54:51.263Z,26.3
2017-06-14T11:55:52.197Z,26.2
2017-06-14T11:56:53.880Z,26.2
2017-06-14T11:57:54.922Z,26.1
2017-06-14T12:00:11.839Z,26.3
2017-06-14T12:01:13.617Z,26.3
2017-06-14T12:02:15.164Z,26.3
2017-06-14T12:03:16.409Z,26.3
2017-06-14T12:04:17.851Z,26.3
2017-06-14T12:05:19.089Z,26.4
2017-06-14T12:07:35.897Z,26.4
2017-06-14T12:08:36.867Z,26.5
2017-06-14T12:09:37.711Z,26.5
2017-06-14T12:10:38.428Z,26.4
2017-06-14T12:11:39.231Z,26.5
2017-06-14T12:12:40.200Z,26.5
2017-06-14T12:13:41.534Z,26.4
2017-06-14T12:14:42.837Z,26.5
2017-06-14T12:15:44.674Z,26.5
2017-06-14T12:16:46.169Z,26.5
2017-06-14T12:17:47.303Z,26.5
2017-06-14T12:18:48.311Z,26.4
2017-06-14T12:19:52.717Z,26.4
2017-06-14T12:20:55.533Z,26.5
2017-06-14T12:21:57.211Z,26.4
2017-06-14T12:22:59.152Z,26.4
2017-06-14T12:23:59.924Z,26.5
2017-06-14T12:25:00.638Z,26.5
2017-06-14T12:26:01.524Z,26.5
2017-06-14T12:27:03.116Z,26.4
2017-06-14T12:28:03.976Z,26.4
2017-06-14T12:29:04.699Z,26.5
2017-06-14T12:30:05.372Z,26.4
2017-06-14T12:31:06.604Z,26.5
2017-06-14T12:32:08.233Z,26.5
2017-06-14T12:33:08.957Z,26.4
2017-06-14T12:34:09.711Z,26.5
2017-06-14T12:35:10.445Z,26.5
2017-06-14T12:36:11.187Z,26.5
2017-06-14T12:37:11.967Z,26.5
2017-06-14T12:38:12.994Z,26.5
2017-06-14T12:39:13.813Z,26.4
2017-06-14T12:40:14.667Z,26.5
2017-06-14T12:41:16.192Z,26.6
2017-06-14T12:42:17.727Z,26.5
2017-06-14T12:43:19.906Z,26.5
2017-06-14T12:44:20.675Z,26.6
2017-06-14T12:45:21.492Z,26.6
2017-06-14T12:46:22.230Z,26.5
2017-06-14T12:47:23.125Z,26.5
2017-06-14T12:48:23.831Z,26.5
2017-06-14T12:49:25.161Z,26.5
2017-06-14T12:50:25.865Z,26.7
2017-06-14T12:51:26.612Z,26.6
2017-06-14T12:52:27.430Z,26.7
2017-06-14T12:53:28.163Z,26.7
2017-06-14T12:54:29.185Z,26.8
2017-06-14T12:55:29.862Z,26.9
2017-06-14T12:56:30.558Z,26.9
2017-06-14T12:57:31.472Z,26.9
2017-06-14T12:58:32.154Z,26.8
2017-06-14T12:59:32.874Z,26.9
2017-06-14T13:00:33.979Z,26.8
2017-06-14T13:01:34.686Z,27.0
2017-06-14T13:02:35.620Z,26.9
2017-06-14T13:03:36.376Z,27.0
2017-06-14T13:04:37.224Z,27.0
2017-06-14T13:05:38.194Z,27.1
2017-06-14T13:06:38.956Z,27.1
2017-06-14T13:07:39.703Z,27.1
2017-06-14T13:08:40.401Z,27.2
2017-06-14T13:09:41.106Z,27.2
2017-06-14T13:10:41.861Z,27.3
2017-06-14T13:11:42.870Z,27.4
2017-06-14T13:12:43.768Z,27.4
2017-06-14T13:13:44.481Z,27.6
2017-06-14T13:14:45.161Z,27.6
2017-06-14T13:15:45.858Z,27.7
2017-06-14T13:16:46.573Z,27.6
2017-06-14T13:17:47.713Z,27.6
2017-06-14T13:18:48.468Z,27.7
2017-06-14T13:19:49.215Z,27.6
2017-06-14T13:20:49.930Z,27.7
2017-06-14T13:21:50.619Z,27.7
2017-06-14T13:22:51.938Z,27.7
2017-06-14T13:23:52.682Z,27.8
2017-06-14T13:24:53.386Z,27.8
2017-06-14T13:25:54.121Z,27.8
2017-06-14T13:26:54.808Z,27.9
2017-06-14T13:27:55.702Z,27.9
2017-06-14T13:28:56.695Z,28.0
2017-06-14T13:29:57.419Z,28.1
2017-06-14T13:30:58.091Z,28.3
2017-06-14T13:31:58.853Z,28.2
2017-06-14T13:32:59.550Z,28.1
2017-06-14T13:34:00.308Z,28.1
2017-06-14T13:35:01.010Z,28.2
2017-06-14T13:36:01.820Z,28.2